sensor_id;sensor_type;location;lat;lon;timestamp;P1;durP1;ratioP1;P2;durP2;ratioP2
26113;SDS011;13966;48.828;9.064;2022-10-23T00:01:16;6.95;;;3.83;;
26113;SDS011;13966;48.828;9.064;2022-10-23T00:03:43;6.32;;;3.30;;
26113;SDS011;13966;48.828;9.064;2022-10-23T00:06:09;10.07;;;4.10;;
26113;SDS011;13966;48.828;9.064;2022-10-23T00:08:36;8.50;;;3.42;;
26113;SDS011;13966;48.828;9.064;2022-10-23T00:11:12;10.90;;;3.80;;
26113;SDS011;13966;48.828;9.064;2022-10-23T00:13:38;12.45;;;3.63;;
26113;SDS011;13966;48.828;9.064;2022-10-23T00:16:05;8.63;;;3.38;;
26113;SDS011;13966;48.828;9.064;2022-10-23T00:18:31;6.40;;;3.30;;
26113;SDS011;13966;48.828;9.064;2022-10-23T00:20:57;8.05;;;3.72;;
26113;SDS011;13966;48.828;9.064;2022-10-23T00:23:23;9.82;;;3.38;;
26113;SDS011;13966;48.828;9.064;2022-10-23T00:25:49;4.32;;;3.10;;
26113;SDS011;13966;48.828;9.064;2022-10-23T00:28:15;8.05;;;3.63;;
26113;SDS011;13966;48.828;9.064;2022-10-23T00:30:41;6.72;;;3.25;;
26113;SDS011;13966;48.828;9.064;2022-10-23T00:33:07;6.32;;;2.75;;
26113;SDS011;13966;48.828;9.064;2022-10-23T00:35:34;4.78;;;3.10;;
26113;SDS011;13966;48.828;9.064;2022-10-23T00:38:00;7.82;;;3.42;;
26113;SDS011;13966;48.828;9.064;2022-10-23T00:40:26;7.05;;;3.03;;
26113;SDS011;13966;48.828;9.064;2022-10-23T00:42:52;8.57;;;3.25;;
26113;SDS011;13966;48.828;9.064;2022-10-23T00:47:44;9.70;;;2.78;;
26113;SDS011;13966;48.828;9.064;2022-10-23T00:50:10;8.43;;;3.25;;
26113;SDS011;13966;48.828;9.064;2022-10-23T00:52:38;5.63;;;2.85;;
26113;SDS011;13966;48.828;9.064;2022-10-23T00:55:05;4.97;;;3.03;;
26113;SDS011;13966;48.828;9.064;2022-10-23T00:57:32;4.40;;;2.72;;
26113;SDS011;13966;48.828;9.064;2022-10-23T00:59:58;6.85;;;2.35;;
26113;SDS011;13966;48.828;9.064;2022-10-23T01:02:24;4.50;;;2.40;;
26113;SDS011;13966;48.828;9.064;2022-10-23T01:04:50;5.35;;;2.58;;
26113;SDS011;13966;48.828;9.064;2022-10-23T01:07:17;7.80;;;2.58;;
26113;SDS011;13966;48.828;9.064;2022-10-23T01:09:50;3.97;;;2.70;;
26113;SDS011;13966;48.828;9.064;2022-10-23T01:12:22;6.10;;;2.60;;
26113;SDS011;13966;48.828;9.064;2022-10-23T01:27:34;7.30;;;2.95;;
26113;SDS011;13966;48.828;9.064;2022-10-23T01:30:03;2.92;;;2.53;;
26113;SDS011;13966;48.828;9.064;2022-10-23T01:35:01;5.32;;;2.85;;
26113;SDS011;13966;48.828;9.064;2022-10-23T01:37:31;7.90;;;2.67;;
26113;SDS011;13966;48.828;9.064;2022-10-23T01:40:00;4.22;;;2.35;;
26113;SDS011;13966;48.828;9.064;2022-10-23T01:42:28;4.35;;;2.67;;
26113;SDS011;13966;48.828;9.064;2022-10-23T01:44:59;8.85;;;2.92;;
26113;SDS011;13966;48.828;9.064;2022-10-23T01:47:26;7.53;;;3.00;;
26113;SDS011;13966;48.828;9.064;2022-10-23T01:49:54;6.30;;;2.80;;
26113;SDS011;13966;48.828;9.064;2022-10-23T01:52:20;4.13;;;2.70;;
26113;SDS011;13966;48.828;9.064;2022-10-23T01:54:47;7.18;;;2.78;;
26113;SDS011;13966;48.828;9.064;2022-10-23T01:57:15;7.43;;;2.63;;
26113;SDS011;13966;48.828;9.064;2022-10-23T01:59:43;4.20;;;2.50;;
26113;SDS011;13966;48.828;9.064;2022-10-23T02:02:11;4.03;;;2.50;;
26113;SDS011;13966;48.828;9.064;2022-10-23T02:04:45;6.88;;;2.78;;
26113;SDS011;13966;48.828;9.064;2022-10-23T02:07:12;13.52;;;2.58;;
26113;SDS011;13966;48.828;9.064;2022-10-23T02:09:38;6.78;;;2.83;;
26113;SDS011;13966;48.828;9.064;2022-10-23T02:12:08;5.15;;;2.85;;
26113;SDS011;13966;48.828;9.064;2022-10-23T02:17:04;5.57;;;2.47;;
26113;SDS011;13966;48.828;9.064;2022-10-23T02:19:34;8.63;;;2.58;;
26113;SDS011;13966;48.828;9.064;2022-10-23T02:27:03;4.97;;;2.53;;
26113;SDS011;13966;48.828;9.064;2022-10-23T02:29:34;7.60;;;3.00;;
26113;SDS011;13966;48.828;9.064;2022-10-23T02:32:02;7.45;;;3.05;;
26113;SDS011;13966;48.828;9.064;2022-10-23T02:34:29;5.32;;;2.90;;
26113;SDS011;13966;48.828;9.064;2022-10-23T02:36:55;5.05;;;2.80;;
26113;SDS011;13966;48.828;9.064;2022-10-23T02:39:21;4.90;;;3.00;;
26113;SDS011;13966;48.828;9.064;2022-10-23T02:41:56;6.80;;;2.63;;
26113;SDS011;13966;48.828;9.064;2022-10-23T02:49:43;8.75;;;3.63;;
26113;SDS011;13966;48.828;9.064;2022-10-23T02:52:17;8.70;;;3.10;;
26113;SDS011;13966;48.828;9.064;2022-10-23T03:00:07;10.85;;;3.10;;
26113;SDS011;13966;48.828;9.064;2022-10-23T03:02:45;12.10;;;3.28;;
26113;SDS011;13966;48.828;9.064;2022-10-23T03:05:15;13.55;;;2.90;;
26113;SDS011;13966;48.828;9.064;2022-10-23T03:07:42;8.52;;;4.00;;
26113;SDS011;13966;48.828;9.064;2022-10-23T03:10:09;5.97;;;2.97;;
26113;SDS011;13966;48.828;9.064;2022-10-23T03:12:35;8.48;;;2.83;;
26113;SDS011;13966;48.828;9.064;2022-10-23T03:15:01;7.28;;;3.00;;
26113;SDS011;13966;48.828;9.064;2022-10-23T03:17:27;8.30;;;3.30;;
26113;SDS011;13966;48.828;9.064;2022-10-23T03:19:53;8.27;;;3.63;;
26113;SDS011;13966;48.828;9.064;2022-10-23T03:22:19;9.35;;;3.05;;
26113;SDS011;13966;48.828;9.064;2022-10-23T03:24:45;5.57;;;3.05;;
26113;SDS011;13966;48.828;9.064;2022-10-23T03:27:11;7.35;;;3.20;;
26113;SDS011;13966;48.828;9.064;2022-10-23T03:29:37;4.35;;;3.22;;
26113;SDS011;13966;48.828;9.064;2022-10-23T03:32:03;7.68;;;3.58;;
26113;SDS011;13966;48.828;9.064;2022-10-23T03:34:29;4.20;;;3.03;;
26113;SDS011;13966;48.828;9.064;2022-10-23T03:36:55;8.27;;;3.72;;
26113;SDS011;13966;48.828;9.064;2022-10-23T03:39:21;8.68;;;3.75;;
26113;SDS011;13966;48.828;9.064;2022-10-23T03:41:47;7.18;;;3.20;;
26113;SDS011;13966;48.828;9.064;2022-10-23T03:44:13;5.47;;;3.58;;
26113;SDS011;13966;48.828;9.064;2022-10-23T03:46:39;8.18;;;3.92;;
26113;SDS011;13966;48.828;9.064;2022-10-23T03:49:05;6.18;;;3.45;;
26113;SDS011;13966;48.828;9.064;2022-10-23T03:51:31;4.28;;;3.20;;
26113;SDS011;13966;48.828;9.064;2022-10-23T03:53:57;7.47;;;3.35;;
26113;SDS011;13966;48.828;9.064;2022-10-23T03:56:23;5.85;;;3.30;;
26113;SDS011;13966;48.828;9.064;2022-10-23T03:58:49;9.85;;;3.60;;
26113;SDS011;13966;48.828;9.064;2022-10-23T04:01:15;5.82;;;2.75;;
26113;SDS011;13966;48.828;9.064;2022-10-23T04:03:41;7.93;;;3.10;;
26113;SDS011;13966;48.828;9.064;2022-10-23T04:06:07;4.53;;;3.03;;
26113;SDS011;13966;48.828;9.064;2022-10-23T04:08:34;6.45;;;3.00;;
26113;SDS011;13966;48.828;9.064;2022-10-23T04:11:00;4.93;;;3.00;;
26113;SDS011;13966;48.828;9.064;2022-10-23T04:13:26;3.90;;;2.80;;
26113;SDS011;13966;48.828;9.064;2022-10-23T04:15:52;6.25;;;3.10;;
26113;SDS011;13966;48.828;9.064;2022-10-23T04:18:18;6.60;;;2.97;;
26113;SDS011;13966;48.828;9.064;2022-10-23T04:20:48;6.00;;;3.03;;
26113;SDS011;13966;48.828;9.064;2022-10-23T04:23:14;4.80;;;3.20;;
26113;SDS011;13966;48.828;9.064;2022-10-23T04:25:41;8.00;;;3.00;;
26113;SDS011;13966;48.828;9.064;2022-10-23T04:28:07;3.67;;;2.88;;
26113;SDS011;13966;48.828;9.064;2022-10-23T04:30:33;4.35;;;2.75;;
26113;SDS011;13966;48.828;9.064;2022-10-23T04:32:59;5.85;;;2.60;;
26113;SDS011;13966;48.828;9.064;2022-10-23T04:35:25;7.00;;;3.40;;
26113;SDS011;13966;48.828;9.064;2022-10-23T04:37:51;5.90;;;3.47;;
26113;SDS011;13966;48.828;9.064;2022-10-23T04:40:17;3.30;;;2.70;;
26113;SDS011;13966;48.828;9.064;2022-10-23T04:42:43;7.75;;;3.20;;
26113;SDS011;13966;48.828;9.064;2022-10-23T04:45:09;8.90;;;3.10;;
26113;SDS011;13966;48.828;9.064;2022-10-23T04:47:35;9.52;;;6.07;;
26113;SDS011;13966;48.828;9.064;2022-10-23T04:50:02;4.78;;;3.78;;
26113;SDS011;13966;48.828;9.064;2022-10-23T04:52:28;4.60;;;3.47;;
26113;SDS011;13966;48.828;9.064;2022-10-23T04:54:54;5.28;;;2.85;;
26113;SDS011;13966;48.828;9.064;2022-10-23T04:57:20;8.23;;;2.90;;
26113;SDS011;13966;48.828;9.064;2022-10-23T04:59:46;3.47;;;2.80;;
26113;SDS011;13966;48.828;9.064;2022-10-23T05:02:12;4.82;;;2.63;;
26113;SDS011;13966;48.828;9.064;2022-10-23T05:04:38;4.13;;;2.72;;
26113;SDS011;13966;48.828;9.064;2022-10-23T05:07:04;4.28;;;2.70;;
26113;SDS011;13966;48.828;9.064;2022-10-23T05:09:30;13.52;;;3.22;;
26113;SDS011;13966;48.828;9.064;2022-10-23T05:11:56;5.78;;;3.17;;
26113;SDS011;13966;48.828;9.064;2022-10-23T05:14:22;9.23;;;3.55;;
26113;SDS011;13966;48.828;9.064;2022-10-23T05:16:55;4.97;;;2.75;;
26113;SDS011;13966;48.828;9.064;2022-10-23T05:19:22;4.70;;;2.85;;
26113;SDS011;13966;48.828;9.064;2022-10-23T05:21:51;6.28;;;3.92;;
26113;SDS011;13966;48.828;9.064;2022-10-23T05:24:22;8.80;;;4.15;;
26113;SDS011;13966;48.828;9.064;2022-10-23T05:26:48;8.90;;;3.75;;
26113;SDS011;13966;48.828;9.064;2022-10-23T05:29:18;10.63;;;4.07;;
26113;SDS011;13966;48.828;9.064;2022-10-23T05:31:44;10.32;;;3.72;;
26113;SDS011;13966;48.828;9.064;2022-10-23T05:34:10;11.48;;;4.18;;
26113;SDS011;13966;48.828;9.064;2022-10-23T05:36:37;6.65;;;3.80;;
26113;SDS011;13966;48.828;9.064;2022-10-23T05:39:04;10.27;;;3.83;;
26113;SDS011;13966;48.828;9.064;2022-10-23T05:41:30;6.03;;;3.40;;
26113;SDS011;13966;48.828;9.064;2022-10-23T05:43:56;4.80;;;3.00;;
26113;SDS011;13966;48.828;9.064;2022-10-23T05:46:21;7.25;;;4.03;;
26113;SDS011;13966;48.828;9.064;2022-10-23T05:48:50;5.53;;;3.40;;
26113;SDS011;13966;48.828;9.064;2022-10-23T05:51:16;8.95;;;3.40;;
26113;SDS011;13966;48.828;9.064;2022-10-23T05:53:46;6.68;;;3.33;;
26113;SDS011;13966;48.828;9.064;2022-10-23T05:56:12;7.43;;;3.45;;
26113;SDS011;13966;48.828;9.064;2022-10-23T05:58:38;6.22;;;3.60;;
26113;SDS011;13966;48.828;9.064;2022-10-23T06:01:05;7.75;;;3.80;;
26113;SDS011;13966;48.828;9.064;2022-10-23T06:03:31;8.57;;;3.40;;
26113;SDS011;13966;48.828;9.064;2022-10-23T06:05:57;5.70;;;3.47;;
26113;SDS011;13966;48.828;9.064;2022-10-23T06:08:23;6.75;;;3.42;;
26113;SDS011;13966;48.828;9.064;2022-10-23T06:10:49;9.60;;;3.50;;
26113;SDS011;13966;48.828;9.064;2022-10-23T06:13:15;5.28;;;2.80;;
26113;SDS011;13966;48.828;9.064;2022-10-23T06:15:41;7.05;;;3.30;;
26113;SDS011;13966;48.828;9.064;2022-10-23T06:18:07;9.98;;;3.80;;
26113;SDS011;13966;48.828;9.064;2022-10-23T06:20:36;4.18;;;3.20;;
26113;SDS011;13966;48.828;9.064;2022-10-23T06:23:03;8.48;;;3.47;;
26113;SDS011;13966;48.828;9.064;2022-10-23T06:25:29;8.77;;;3.42;;
26113;SDS011;13966;48.828;9.064;2022-10-23T06:27:55;5.95;;;3.03;;
26113;SDS011;13966;48.828;9.064;2022-10-23T06:30:21;7.80;;;4.18;;
26113;SDS011;13966;48.828;9.064;2022-10-23T06:32:47;9.65;;;4.07;;
26113;SDS011;13966;48.828;9.064;2022-10-23T06:35:13;7.18;;;3.47;;
26113;SDS011;13966;48.828;9.064;2022-10-23T06:37:39;5.40;;;3.40;;
26113;SDS011;13966;48.828;9.064;2022-10-23T06:40:05;7.10;;;3.20;;
26113;SDS011;13966;48.828;9.064;2022-10-23T06:42:32;4.68;;;3.05;;
26113;SDS011;13966;48.828;9.064;2022-10-23T06:44:58;10.07;;;4.32;;
26113;SDS011;13966;48.828;9.064;2022-10-23T06:47:24;8.65;;;3.42;;
26113;SDS011;13966;48.828;9.064;2022-10-23T06:49:50;8.23;;;3.30;;
26113;SDS011;13966;48.828;9.064;2022-10-23T06:52:16;11.27;;;4.35;;
26113;SDS011;13966;48.828;9.064;2022-10-23T06:54:42;8.60;;;3.63;;
26113;SDS011;13966;48.828;9.064;2022-10-23T06:57:08;8.57;;;3.63;;
26113;SDS011;13966;48.828;9.064;2022-10-23T06:59:34;7.88;;;3.92;;
26113;SDS011;13966;48.828;9.064;2022-10-23T07:02:00;6.53;;;4.03;;
26113;SDS011;13966;48.828;9.064;2022-10-23T07:04:26;9.13;;;4.13;;
26113;SDS011;13966;48.828;9.064;2022-10-23T07:06:55;7.60;;;4.28;;
26113;SDS011;13966;48.828;9.064;2022-10-23T07:09:21;9.80;;;4.13;;
26113;SDS011;13966;48.828;9.064;2022-10-23T07:11:48;6.13;;;4.40;;
26113;SDS011;13966;48.828;9.064;2022-10-23T07:14:14;6.78;;;4.25;;
26113;SDS011;13966;48.828;9.064;2022-10-23T07:16:40;6.65;;;4.50;;
26113;SDS011;13966;48.828;9.064;2022-10-23T07:19:06;5.30;;;4.13;;
26113;SDS011;13966;48.828;9.064;2022-10-23T07:21:32;5.25;;;4.03;;
26113;SDS011;13966;48.828;9.064;2022-10-23T07:23:59;8.43;;;4.00;;
26113;SDS011;13966;48.828;9.064;2022-10-23T07:26:25;7.57;;;4.10;;
26113;SDS011;13966;48.828;9.064;2022-10-23T07:28:51;8.05;;;4.25;;
26113;SDS011;13966;48.828;9.064;2022-10-23T07:31:19;10.02;;;4.88;;
26113;SDS011;13966;48.828;9.064;2022-10-23T07:33:46;11.20;;;4.78;;
26113;SDS011;13966;48.828;9.064;2022-10-23T07:36:12;5.65;;;3.90;;
26113;SDS011;13966;48.828;9.064;2022-10-23T07:38:38;9.52;;;4.63;;
26113;SDS011;13966;48.828;9.064;2022-10-23T07:41:04;7.22;;;3.75;;
26113;SDS011;13966;48.828;9.064;2022-10-23T07:43:30;8.23;;;4.18;;
26113;SDS011;13966;48.828;9.064;2022-10-23T07:45:56;10.35;;;3.70;;
26113;SDS011;13966;48.828;9.064;2022-10-23T07:48:22;5.70;;;3.83;;
26113;SDS011;13966;48.828;9.064;2022-10-23T07:50:49;8.48;;;3.95;;
26113;SDS011;13966;48.828;9.064;2022-10-23T07:53:16;4.82;;;3.63;;
26113;SDS011;13966;48.828;9.064;2022-10-23T07:55:44;5.65;;;3.67;;
26113;SDS011;13966;48.828;9.064;2022-10-23T07:58:16;8.32;;;5.03;;
26113;SDS011;13966;48.828;9.064;2022-10-23T08:00:42;5.57;;;4.30;;
26113;SDS011;13966;48.828;9.064;2022-10-23T08:03:09;6.40;;;4.20;;
26113;SDS011;13966;48.828;9.064;2022-10-23T08:05:36;5.47;;;3.97;;
26113;SDS011;13966;48.828;9.064;2022-10-23T08:08:02;7.82;;;4.38;;
26113;SDS011;13966;48.828;9.064;2022-10-23T08:10:28;6.78;;;3.70;;
26113;SDS011;13966;48.828;9.064;2022-10-23T08:12:54;4.47;;;2.90;;
26113;SDS011;13966;48.828;9.064;2022-10-23T08:15:20;8.82;;;3.03;;
26113;SDS011;13966;48.828;9.064;2022-10-23T08:17:46;3.33;;;2.75;;
26113;SDS011;13966;48.828;9.064;2022-10-23T08:20:12;4.10;;;2.50;;
26113;SDS011;13966;48.828;9.064;2022-10-23T08:22:38;4.68;;;2.05;;
26113;SDS011;13966;48.828;9.064;2022-10-23T08:25:05;5.25;;;2.30;;
26113;SDS011;13966;48.828;9.064;2022-10-23T08:27:31;5.32;;;2.03;;
26113;SDS011;13966;48.828;9.064;2022-10-23T08:29:57;4.63;;;2.05;;
26113;SDS011;13966;48.828;9.064;2022-10-23T08:32:23;6.15;;;1.88;;
26113;SDS011;13966;48.828;9.064;2022-10-23T08:34:49;3.42;;;2.28;;
26113;SDS011;13966;48.828;9.064;2022-10-23T08:37:14;2.97;;;1.70;;
26113;SDS011;13966;48.828;9.064;2022-10-23T08:39:41;4.32;;;1.70;;
26113;SDS011;13966;48.828;9.064;2022-10-23T08:42:14;5.07;;;2.13;;
26113;SDS011;13966;48.828;9.064;2022-10-23T08:44:45;4.80;;;1.90;;
26113;SDS011;13966;48.828;9.064;2022-10-23T08:47:18;7.80;;;2.03;;
26113;SDS011;13966;48.828;9.064;2022-10-23T08:49:49;4.32;;;2.40;;
26113;SDS011;13966;48.828;9.064;2022-10-23T08:52:29;2.88;;;1.88;;
26113;SDS011;13966;48.828;9.064;2022-10-23T08:55:11;4.00;;;1.75;;
26113;SDS011;13966;48.828;9.064;2022-10-23T08:57:45;2.33;;;1.92;;
26113;SDS011;13966;48.828;9.064;2022-10-23T09:00:14;4.80;;;1.40;;
26113;SDS011;13966;48.828;9.064;2022-10-23T09:02:42;4.15;;;2.00;;
26113;SDS011;13966;48.828;9.064;2022-10-23T09:05:16;6.28;;;2.20;;
26113;SDS011;13966;48.828;9.064;2022-10-23T09:11:22;3.15;;;1.67;;
26113;SDS011;13966;48.828;9.064;2022-10-23T09:15:50;4.82;;;1.70;;
26113;SDS011;13966;48.828;9.064;2022-10-23T09:18:22;1.58;;;1.33;;
26113;SDS011;13966;48.828;9.064;2022-10-23T09:20:49;1.23;;;0.80;;
26113;SDS011;13966;48.828;9.064;2022-10-23T09:23:17;5.43;;;1.20;;
26113;SDS011;13966;48.828;9.064;2022-10-23T09:25:44;3.10;;;0.80;;
26113;SDS011;13966;48.828;9.064;2022-10-23T09:28:16;1.63;;;0.88;;
26113;SDS011;13966;48.828;9.064;2022-10-23T09:30:43;1.20;;;0.80;;
26113;SDS011;13966;48.828;9.064;2022-10-23T09:33:16;4.53;;;0.85;;
26113;SDS011;13966;48.828;9.064;2022-10-23T09:36:00;10.05;;;1.17;;
26113;SDS011;13966;48.828;9.064;2022-10-23T09:41:18;3.45;;;0.60;;
26113;SDS011;13966;48.828;9.064;2022-10-23T09:43:45;2.33;;;0.80;;
26113;SDS011;13966;48.828;9.064;2022-10-23T09:46:11;5.40;;;0.93;;
26113;SDS011;13966;48.828;9.064;2022-10-23T09:48:37;4.15;;;1.00;;
26113;SDS011;13966;48.828;9.064;2022-10-23T09:53:39;0.45;;;0.40;;
26113;SDS011;13966;48.828;9.064;2022-10-23T10:01:21;1.02;;;0.70;;
26113;SDS011;13966;48.828;9.064;2022-10-23T10:03:48;5.93;;;1.00;;
26113;SDS011;13966;48.828;9.064;2022-10-23T10:06:37;3.35;;;0.80;;
26113;SDS011;13966;48.828;9.064;2022-10-23T10:09:04;2.85;;;0.80;;
26113;SDS011;13966;48.828;9.064;2022-10-23T10:21:59;1.55;;;0.60;;
26113;SDS011;13966;48.828;9.064;2022-10-23T10:24:38;1.17;;;0.57;;
26113;SDS011;13966;48.828;9.064;2022-10-23T10:29:49;6.22;;;0.90;;
26113;SDS011;13966;48.828;9.064;2022-10-23T10:43:08;1.75;;;0.35;;
26113;SDS011;13966;48.828;9.064;2022-10-23T10:50:41;0.50;;;0.40;;
26113;SDS011;13966;48.828;9.064;2022-10-23T10:53:19;2.75;;;0.63;;
26113;SDS011;13966;48.828;9.064;2022-10-23T10:55:52;2.90;;;0.60;;
26113;SDS011;13966;48.828;9.064;2022-10-23T10:58:19;2.33;;;0.40;;
26113;SDS011;13966;48.828;9.064;2022-10-23T11:00:49;4.63;;;0.80;;
26113;SDS011;13966;48.828;9.064;2022-10-23T11:03:27;0.90;;;0.60;;
26113;SDS011;13966;48.828;9.064;2022-10-23T11:05:56;1.85;;;0.82;;
26113;SDS011;13966;48.828;9.064;2022-10-23T11:08:25;1.48;;;0.50;;
26113;SDS011;13966;48.828;9.064;2022-10-23T11:10:57;0.52;;;0.30;;
26113;SDS011;13966;48.828;9.064;2022-10-23T11:13:26;4.13;;;0.70;;
26113;SDS011;13966;48.828;9.064;2022-10-23T11:15:57;1.27;;;0.40;;
26113;SDS011;13966;48.828;9.064;2022-10-23T11:18:25;1.92;;;0.50;;
26113;SDS011;13966;48.828;9.064;2022-10-23T11:20:54;0.60;;;0.40;;
26113;SDS011;13966;48.828;9.064;2022-10-23T11:34:06;0.98;;;0.57;;
26113;SDS011;13966;48.828;9.064;2022-10-23T11:36:51;2.80;;;0.65;;
26113;SDS011;13966;48.828;9.064;2022-10-23T11:39:18;0.75;;;0.50;;
26113;SDS011;13966;48.828;9.064;2022-10-23T11:41:46;2.15;;;0.60;;
26113;SDS011;13966;48.828;9.064;2022-10-23T11:47:02;2.30;;;1.00;;
26113;SDS011;13966;48.828;9.064;2022-10-23T11:49:28;1.52;;;1.27;;
26113;SDS011;13966;48.828;9.064;2022-10-23T11:51:59;1.20;;;0.90;;
26113;SDS011;13966;48.828;9.064;2022-10-23T11:54:25;2.20;;;1.40;;
26113;SDS011;13966;48.828;9.064;2022-10-23T11:57:03;2.40;;;1.70;;
26113;SDS011;13966;48.828;9.064;2022-10-23T11:59:33;3.10;;;2.38;;
26113;SDS011;13966;48.828;9.064;2022-10-23T12:02:02;3.95;;;2.22;;
26113;SDS011;13966;48.828;9.064;2022-10-23T12:07:01;3.08;;;1.50;;
26113;SDS011;13966;48.828;9.064;2022-10-23T12:12:37;0.77;;;0.65;;
26113;SDS011;13966;48.828;9.064;2022-10-23T12:15:06;1.77;;;0.80;;
26113;SDS011;13966;48.828;9.064;2022-10-23T12:17:39;1.13;;;0.50;;
26113;SDS011;13966;48.828;9.064;2022-10-23T12:27:50;2.40;;;0.80;;
26113;SDS011;13966;48.828;9.064;2022-10-23T12:30:27;2.70;;;0.80;;
26113;SDS011;13966;48.828;9.064;2022-10-23T12:33:13;1.10;;;1.00;;
26113;SDS011;13966;48.828;9.064;2022-10-23T12:38:19;2.25;;;1.05;;
26113;SDS011;13966;48.828;9.064;2022-10-23T12:40:59;1.70;;;0.80;;
26113;SDS011;13966;48.828;9.064;2022-10-23T12:45:51;1.77;;;0.60;;
26113;SDS011;13966;48.828;9.064;2022-10-23T12:48:21;1.98;;;0.70;;
26113;SDS011;13966;48.828;9.064;2022-10-23T12:50:51;1.27;;;0.50;;
26113;SDS011;13966;48.828;9.064;2022-10-23T12:53:18;2.72;;;0.63;;
26113;SDS011;13966;48.828;9.064;2022-10-23T12:55:46;0.65;;;0.60;;
26113;SDS011;13966;48.828;9.064;2022-10-23T12:58:20;1.30;;;0.60;;
26113;SDS011;13966;48.828;9.064;2022-10-23T13:00:49;1.20;;;0.70;;
26113;SDS011;13966;48.828;9.064;2022-10-23T13:03:15;1.85;;;1.33;;
26113;SDS011;13966;48.828;9.064;2022-10-23T13:05:41;4.80;;;0.88;;
26113;SDS011;13966;48.828;9.064;2022-10-23T13:08:07;1.10;;;0.60;;
26113;SDS011;13966;48.828;9.064;2022-10-23T13:10:34;1.23;;;0.73;;
26113;SDS011;13966;48.828;9.064;2022-10-23T13:13:04;1.98;;;0.90;;
26113;SDS011;13966;48.828;9.064;2022-10-23T13:20:23;1.60;;;0.60;;
26113;SDS011;13966;48.828;9.064;2022-10-23T13:22:55;2.17;;;0.60;;
26113;SDS011;13966;48.828;9.064;2022-10-23T13:25:26;1.33;;;0.47;;
26113;SDS011;13966;48.828;9.064;2022-10-23T13:30:38;3.58;;;0.50;;
26113;SDS011;13966;48.828;9.064;2022-10-23T13:35:53;2.67;;;0.60;;
26113;SDS011;13966;48.828;9.064;2022-10-23T13:38:26;0.47;;;0.43;;
26113;SDS011;13966;48.828;9.064;2022-10-23T13:40:56;1.63;;;0.60;;
26113;SDS011;13966;48.828;9.064;2022-10-23T13:43:23;0.90;;;0.50;;
26113;SDS011;13966;48.828;9.064;2022-10-23T13:45:50;0.77;;;0.75;;
26113;SDS011;13966;48.828;9.064;2022-10-23T13:48:16;1.08;;;0.80;;
26113;SDS011;13966;48.828;9.064;2022-10-23T13:50:43;2.28;;;0.65;;
26113;SDS011;13966;48.828;9.064;2022-10-23T13:53:10;0.95;;;0.63;;
26113;SDS011;13966;48.828;9.064;2022-10-23T13:55:37;3.25;;;1.20;;
26113;SDS011;13966;48.828;9.064;2022-10-23T13:58:04;1.25;;;0.90;;
26113;SDS011;13966;48.828;9.064;2022-10-23T14:00:30;2.30;;;1.27;;
26113;SDS011;13966;48.828;9.064;2022-10-23T14:02:56;4.45;;;1.40;;
26113;SDS011;13966;48.828;9.064;2022-10-23T14:05:22;3.00;;;1.67;;
26113;SDS011;13966;48.828;9.064;2022-10-23T14:07:48;4.75;;;1.40;;
26113;SDS011;13966;48.828;9.064;2022-10-23T14:10:14;2.55;;;1.30;;
26113;SDS011;13966;48.828;9.064;2022-10-23T14:12:40;1.98;;;1.25;;
26113;SDS011;13966;48.828;9.064;2022-10-23T14:15:07;3.33;;;1.13;;
26113;SDS011;13966;48.828;9.064;2022-10-23T14:17:33;2.88;;;1.23;;
26113;SDS011;13966;48.828;9.064;2022-10-23T14:20:00;3.30;;;1.20;;
26113;SDS011;13966;48.828;9.064;2022-10-23T14:22:26;3.65;;;1.55;;
26113;SDS011;13966;48.828;9.064;2022-10-23T14:24:52;5.00;;;2.20;;
26113;SDS011;13966;48.828;9.064;2022-10-23T14:27:18;4.78;;;1.92;;
26113;SDS011;13966;48.828;9.064;2022-10-23T14:29:44;2.17;;;1.90;;
26113;SDS011;13966;48.828;9.064;2022-10-23T14:32:10;2.55;;;1.77;;
26113;SDS011;13966;48.828;9.064;2022-10-23T14:34:37;2.85;;;1.67;;
26113;SDS011;13966;48.828;9.064;2022-10-23T14:37:05;3.70;;;1.80;;
26113;SDS011;13966;48.828;9.064;2022-10-23T14:39:31;6.75;;;1.60;;
26113;SDS011;13966;48.828;9.064;2022-10-23T14:41:57;5.00;;;1.83;;
26113;SDS011;13966;48.828;9.064;2022-10-23T14:44:23;3.33;;;1.20;;
26113;SDS011;13966;48.828;9.064;2022-10-23T14:46:49;1.40;;;1.27;;
26113;SDS011;13966;48.828;9.064;2022-10-23T14:49:16;5.53;;;1.50;;
26113;SDS011;13966;48.828;9.064;2022-10-23T14:51:42;5.07;;;1.52;;
26113;SDS011;13966;48.828;9.064;2022-10-23T14:54:08;6.55;;;2.53;;
26113;SDS011;13966;48.828;9.064;2022-10-23T14:56:35;3.40;;;2.60;;
26113;SDS011;13966;48.828;9.064;2022-10-23T14:59:01;6.13;;;2.50;;
26113;SDS011;13966;48.828;9.064;2022-10-23T15:01:31;2.92;;;2.10;;
26113;SDS011;13966;48.828;9.064;2022-10-23T15:03:57;3.07;;;2.43;;
26113;SDS011;13966;48.828;9.064;2022-10-23T15:06:23;4.47;;;2.35;;
26113;SDS011;13966;48.828;9.064;2022-10-23T15:08:50;5.20;;;2.70;;
26113;SDS011;13966;48.828;9.064;2022-10-23T15:11:16;5.15;;;2.17;;
26113;SDS011;13966;48.828;9.064;2022-10-23T15:13:42;5.90;;;2.33;;
26113;SDS011;13966;48.828;9.064;2022-10-23T15:16:09;4.10;;;2.40;;
26113;SDS011;13966;48.828;9.064;2022-10-23T15:18:35;3.78;;;2.28;;
26113;SDS011;13966;48.828;9.064;2022-10-23T15:21:05;5.82;;;2.50;;
26113;SDS011;13966;48.828;9.064;2022-10-23T15:23:31;4.90;;;2.53;;
26113;SDS011;13966;48.828;9.064;2022-10-23T15:25:59;5.20;;;2.50;;
26113;SDS011;13966;48.828;9.064;2022-10-23T15:28:25;4.45;;;2.28;;
26113;SDS011;13966;48.828;9.064;2022-10-23T15:30:51;4.38;;;2.42;;
26113;SDS011;13966;48.828;9.064;2022-10-23T15:33:18;3.92;;;2.30;;
26113;SDS011;13966;48.828;9.064;2022-10-23T15:35:44;5.32;;;2.67;;
26113;SDS011;13966;48.828;9.064;2022-10-23T15:38:10;3.55;;;2.40;;
26113;SDS011;13966;48.828;9.064;2022-10-23T15:40:36;6.50;;;2.63;;
26113;SDS011;13966;48.828;9.064;2022-10-23T15:43:02;5.93;;;2.75;;
26113;SDS011;13966;48.828;9.064;2022-10-23T15:45:29;6.30;;;3.40;;
26113;SDS011;13966;48.828;9.064;2022-10-23T15:47:55;8.60;;;3.20;;
26113;SDS011;13966;48.828;9.064;2022-10-23T15:50:21;5.28;;;2.83;;
26113;SDS011;13966;48.828;9.064;2022-10-23T15:52:47;7.25;;;2.58;;
26113;SDS011;13966;48.828;9.064;2022-10-23T15:55:14;8.73;;;3.10;;
26113;SDS011;13966;48.828;9.064;2022-10-23T15:57:40;10.77;;;4.57;;
26113;SDS011;13966;48.828;9.064;2022-10-23T16:00:07;10.20;;;4.38;;
26113;SDS011;13966;48.828;9.064;2022-10-23T16:02:34;22.52;;;13.60;;
26113;SDS011;13966;48.828;9.064;2022-10-23T16:05:00;29.58;;;14.15;;
26113;SDS011;13966;48.828;9.064;2022-10-23T16:07:26;23.45;;;13.25;;
26113;SDS011;13966;48.828;9.064;2022-10-23T16:09:52;21.25;;;10.70;;
26113;SDS011;13966;48.828;9.064;2022-10-23T16:12:18;20.70;;;7.50;;
26113;SDS011;13966;48.828;9.064;2022-10-23T16:14:44;15.68;;;6.85;;
26113;SDS011;13966;48.828;9.064;2022-10-23T16:17:10;14.27;;;6.72;;
26113;SDS011;13966;48.828;9.064;2022-10-23T16:19:38;14.25;;;6.90;;
26113;SDS011;13966;48.828;9.064;2022-10-23T16:22:04;14.73;;;6.20;;
26113;SDS011;13966;48.828;9.064;2022-10-23T16:24:30;11.32;;;5.57;;
26113;SDS011;13966;48.828;9.064;2022-10-23T16:26:57;8.05;;;4.85;;
26113;SDS011;13966;48.828;9.064;2022-10-23T16:29:23;9.38;;;4.90;;
26113;SDS011;13966;48.828;9.064;2022-10-23T16:31:51;13.43;;;6.80;;
26113;SDS011;13966;48.828;9.064;2022-10-23T16:34:17;13.20;;;6.50;;
26113;SDS011;13966;48.828;9.064;2022-10-23T16:36:43;10.77;;;5.35;;
26113;SDS011;13966;48.828;9.064;2022-10-23T16:39:10;10.98;;;5.38;;
26113;SDS011;13966;48.828;9.064;2022-10-23T16:41:37;8.85;;;5.75;;
26113;SDS011;13966;48.828;9.064;2022-10-23T16:44:03;13.27;;;4.88;;
26113;SDS011;13966;48.828;9.064;2022-10-23T16:46:29;8.93;;;5.78;;
26113;SDS011;13966;48.828;9.064;2022-10-23T16:48:55;10.32;;;5.32;;
26113;SDS011;13966;48.828;9.064;2022-10-23T16:51:22;8.05;;;5.20;;